createdAt,value
2019-05-20T00:01:59.495Z,14.01
2019-05-20T00:04:31.309Z,14.00
2019-05-20T00:07:03.153Z,13.99
2019-05-20T00:09:34.572Z,13.91
2019-05-20T00:12:06.004Z,13.87
2019-05-20T00:14:37.190Z,13.85
2019-05-20T00:17:08.612Z,13.79
2019-05-20T00:19:40.075Z,13.72
2019-05-20T00:22:11.439Z,13.76
2019-05-20T00:24:42.965Z,13.79
2019-05-20T00:27:14.695Z,13.76
2019-05-20T00:29:46.233Z,13.73
2019-05-20T00:32:18.957Z,13.60
2019-05-20T00:34:50.525Z,13.49
2019-05-20T00:37:21.841Z,13.46
2019-05-20T00:39:53.292Z,13.46
2019-05-20T00:42:24.631Z,13.45
2019-05-20T00:44:56.006Z,13.42
2019-05-20T00:47:27.548Z,13.41
2019-05-20T00:49:59.145Z,13.40
2019-05-20T00:52:30.882Z,13.40
2019-05-20T00:55:02.360Z,13.36
2019-05-20T00:57:33.568Z,13.40
2019-05-20T01:00:08.108Z,13.43
2019-05-20T01:02:40.505Z,13.44
2019-05-20T01:05:11.725Z,13.41
2019-05-20T01:07:43.096Z,13.47
2019-05-20T01:10:15.189Z,13.50
2019-05-20T01:12:47.703Z,13.47
2019-05-20T01:15:20.059Z,13.49
2019-05-20T01:17:52.647Z,13.49
2019-05-20T01:20:23.797Z,13.49
2019-05-20T01:22:55.315Z,13.46
2019-05-20T01:25:26.971Z,13.46
2019-05-20T01:27:59.535Z,13.47
2019-05-20T01:30:30.680Z,13.47
2019-05-20T01:33:13.435Z,13.50
2019-05-20T01:35:34.976Z,13.40
2019-05-20T01:38:06.525Z,13.34
2019-05-20T01:40:37.793Z,13.27
2019-05-20T01:43:09.824Z,13.24
2019-05-20T01:45:41.222Z,13.27
2019-05-20T01:48:12.878Z,13.21
2019-05-20T01:50:45.170Z,13.20
2019-05-20T01:53:16.378Z,13.16
2019-05-20T01:55:48.128Z,13.08
2019-05-20T01:58:19.988Z,13.04
2019-05-20T02:00:51.339Z,13.09
2019-05-20T02:03:31.782Z,13.13
2019-05-20T02:05:56.781Z,13.03
2019-05-20T02:08:28.145Z,12.94
2019-05-20T02:10:59.347Z,12.96
2019-05-20T02:13:32.040Z,12.87
2019-05-20T02:16:04.726Z,12.90
2019-05-20T02:18:37.451Z,12.81
2019-05-20T02:21:08.934Z,12.67
2019-05-20T02:23:39.908Z,12.61
2019-05-20T02:26:11.295Z,12.55
2019-05-20T02:28:42.921Z,12.55
2019-05-20T02:31:14.303Z,12.62
2019-05-20T02:33:51.853Z,12.68
2019-05-20T02:36:18.371Z,12.76
2019-05-20T02:38:49.587Z,12.77
2019-05-20T02:41:21.537Z,12.79
2019-05-20T02:43:54.038Z,12.83
2019-05-20T02:46:25.797Z,12.77
2019-05-20T02:48:58.790Z,12.77
2019-05-20T02:51:31.615Z,12.79
2019-05-20T02:54:03.779Z,12.81
2019-05-20T02:56:35.035Z,12.85
2019-05-20T02:59:06.998Z,12.85
2019-05-20T03:01:38.408Z,12.84
2019-05-20T03:04:12.683Z,12.86
2019-05-20T03:06:43.398Z,12.89
2019-05-20T03:09:14.449Z,12.84
2019-05-20T03:11:46.624Z,12.79
2019-05-20T03:14:18.577Z,12.81
2019-05-20T03:16:49.852Z,12.83
2019-05-20T03:19:24.471Z,12.86
2019-05-20T03:21:56.206Z,12.85
2019-05-20T03:24:27.891Z,12.85
2019-05-20T03:27:00.324Z,12.86
2019-05-20T03:29:32.918Z,12.87
2019-05-20T03:32:04.047Z,12.91
2019-05-20T03:34:48.414Z,12.89
2019-05-20T03:37:09.093Z,12.89
2019-05-20T03:39:42.050Z,12.92
2019-05-20T03:42:13.422Z,12.90
2019-05-20T03:44:44.743Z,12.95
2019-05-20T03:47:16.174Z,13.00
2019-05-20T03:49:47.700Z,13.05
2019-05-20T03:52:19.214Z,13.03
2019-05-20T03:54:51.028Z,13.04
2019-05-20T03:57:22.422Z,13.00
2019-05-20T03:59:55.308Z,13.08
2019-05-20T04:02:27.791Z,13.10
2019-05-20T04:05:02.755Z,13.12
2019-05-20T04:07:32.335Z,13.18
2019-05-20T04:10:06.370Z,13.23
2019-05-20T04:12:37.781Z,13.33
2019-05-20T04:15:09.868Z,13.37
2019-05-20T04:17:41.193Z,13.36
2019-05-20T04:20:12.848Z,13.41
2019-05-20T04:22:44.132Z,13.52
2019-05-20T04:25:15.714Z,13.57
2019-05-20T04:27:47.192Z,13.63
2019-05-20T04:30:19.211Z,13.71
2019-05-20T04:32:51.102Z,13.79
2019-05-20T04:35:23.589Z,13.93
2019-05-20T04:37:55.127Z,13.99
2019-05-20T04:40:29.018Z,14.08
2019-05-20T04:43:00.805Z,14.16
2019-05-20T04:45:32.887Z,14.26
2019-05-20T04:48:04.466Z,14.34
2019-05-20T04:50:35.977Z,14.43
2019-05-20T04:53:07.122Z,14.52
2019-05-20T04:55:39.037Z,14.63
2019-05-20T04:58:10.242Z,14.72
2019-05-20T05:00:44.598Z,14.85
2019-05-20T05:03:16.365Z,14.95
2019-05-20T05:05:48.750Z,15.06
2019-05-20T05:08:21.325Z,15.21
2019-05-20T05:10:53.226Z,15.39
2019-05-20T05:13:25.201Z,15.53
2019-05-20T05:15:56.848Z,15.73
2019-05-20T05:18:28.574Z,15.84
2019-05-20T05:21:00.361Z,15.95
2019-05-20T05:23:31.509Z,16.11
2019-05-20T05:26:03.009Z,16.24
2019-05-20T05:28:34.541Z,16.40
2019-05-20T05:31:05.825Z,16.56
2019-05-20T05:33:37.730Z,16.71
2019-05-20T05:36:09.094Z,16.86
2019-05-20T05:38:41.157Z,17.03
2019-05-20T05:41:12.628Z,17.22
2019-05-20T05:43:44.131Z,17.38
2019-05-20T05:46:15.565Z,17.50
2019-05-20T05:48:46.963Z,17.62
2019-05-20T05:51:18.552Z,17.72
2019-05-20T05:53:51.270Z,17.83
2019-05-20T05:56:22.675Z,17.96
2019-05-20T05:58:53.816Z,18.00
2019-05-20T06:01:27.910Z,17.99
2019-05-20T06:03:59.356Z,17.98
2019-05-20T06:06:30.678Z,18.06
2019-05-20T06:09:02.377Z,18.11
2019-05-20T06:11:33.551Z,18.27
2019-05-20T06:14:06.274Z,18.40
2019-05-20T06:16:37.520Z,18.46
2019-05-20T06:19:08.520Z,18.57
2019-05-20T06:21:41.481Z,18.68
2019-05-20T06:24:13.362Z,18.73
2019-05-20T06:26:44.876Z,18.80
2019-05-20T06:29:17.516Z,18.86
2019-05-20T06:31:49.104Z,18.88
2019-05-20T06:34:20.989Z,18.96
2019-05-20T06:36:53.996Z,19.01
2019-05-20T06:39:26.473Z,19.16
2019-05-20T06:41:58.214Z,19.28
2019-05-20T06:44:30.707Z,19.38
2019-05-20T06:47:03.016Z,19.50
2019-05-20T06:49:34.505Z,19.68
2019-05-20T06:52:06.165Z,19.88
2019-05-20T06:54:37.641Z,20.05
2019-05-20T06:57:09.013Z,20.22
2019-05-20T06:59:41.177Z,20.38
2019-05-20T07:02:13.299Z,20.51
2019-05-20T07:04:45.082Z,20.56
2019-05-20T07:07:21.030Z,20.71
2019-05-20T07:09:49.328Z,20.85
2019-05-20T07:12:21.477Z,20.94
2019-05-20T07:14:53.277Z,20.96
2019-05-20T07:17:24.778Z,20.98
2019-05-20T07:19:56.386Z,21.00
2019-05-20T07:22:28.181Z,21.10
2019-05-20T07:24:59.671Z,21.00
2019-05-20T07:27:31.480Z,20.79
2019-05-20T07:30:03.565Z,20.61
2019-05-20T07:32:36.903Z,20.56
2019-05-20T07:35:09.200Z,20.64
2019-05-20T07:37:41.277Z,20.74
2019-05-20T07:40:14.273Z,20.81
2019-05-20T07:42:45.761Z,20.90
2019-05-20T07:45:17.611Z,20.77
2019-05-20T07:47:48.559Z,20.73
2019-05-20T07:50:21.291Z,20.72
2019-05-20T07:52:52.527Z,20.78
2019-05-20T07:55:39.347Z,20.91
2019-05-20T07:58:15.919Z,20.95
2019-05-20T08:00:47.870Z,21.00
2019-05-20T08:03:20.516Z,21.04
2019-05-20T08:05:52.898Z,21.05
2019-05-20T08:08:32.671Z,21.01
2019-05-20T08:11:04.972Z,21.07
2019-05-20T08:13:36.513Z,21.00
2019-05-20T08:16:18.149Z,20.96
2019-05-20T08:19:08.485Z,20.91
2019-05-20T08:21:45.329Z,20.97
2019-05-20T08:24:18.473Z,21.03
2019-05-20T08:26:49.629Z,20.97
2019-05-20T08:29:20.719Z,21.09
2019-05-20T08:31:52.666Z,21.34
2019-05-20T08:34:27.387Z,21.26
2019-05-20T08:36:59.420Z,21.36
2019-05-20T08:39:31.943Z,21.39
2019-05-20T08:42:04.071Z,21.19
2019-05-20T08:44:37.564Z,21.16
2019-05-20T08:47:09.474Z,21.07
2019-05-20T08:49:41.337Z,20.93
2019-05-20T08:52:14.191Z,20.87
2019-05-20T08:54:45.822Z,20.83
2019-05-20T08:57:17.346Z,20.82
2019-05-20T08:59:48.849Z,20.88
2019-05-20T09:02:20.430Z,21.04
2019-05-20T09:04:52.523Z,21.07
2019-05-20T09:07:24.329Z,21.17
2019-05-20T09:09:56.001Z,21.16
2019-05-20T09:12:27.634Z,21.04
2019-05-20T09:14:59.740Z,20.80
2019-05-20T09:17:38.622Z,20.87
2019-05-20T09:20:08.905Z,20.86
2019-05-20T09:22:40.293Z,20.77
2019-05-20T09:25:16.749Z,20.72
2019-05-20T09:27:51.292Z,20.63
2019-05-20T09:30:23.844Z,20.67
2019-05-20T09:32:56.253Z,20.74
2019-05-20T09:35:28.222Z,20.86
2019-05-20T09:37:59.922Z,20.77
2019-05-20T09:40:34.636Z,20.74
2019-05-20T09:43:25.083Z,20.66
2019-05-20T09:46:07.631Z,20.59
2019-05-20T09:48:30.561Z,20.60
2019-05-20T09:51:02.081Z,20.58
2019-05-20T09:53:34.453Z,20.56
2019-05-20T09:56:07.404Z,20.55
2019-05-20T09:58:39.214Z,20.59
2019-05-20T10:01:10.663Z,20.62
2019-05-20T10:03:42.596Z,20.64
2019-05-20T10:06:15.228Z,20.63
2019-05-20T10:08:47.021Z,20.62
2019-05-20T10:11:19.867Z,20.64
2019-05-20T10:13:51.851Z,20.73
2019-05-20T10:16:23.237Z,20.71
2019-05-20T10:18:55.481Z,20.74
2019-05-20T10:21:27.787Z,20.74
2019-05-20T10:24:00.384Z,20.74
2019-05-20T10:26:32.174Z,20.68
2019-05-20T10:29:04.479Z,20.68
2019-05-20T10:31:36.549Z,20.67
2019-05-20T10:34:09.107Z,20.68
2019-05-20T10:36:41.101Z,20.73
2019-05-20T10:39:13.352Z,20.80
2019-05-20T10:41:46.625Z,20.84
2019-05-20T10:44:19.020Z,20.86
2019-05-20T10:46:50.820Z,20.90
2019-05-20T10:49:22.896Z,20.95
2019-05-20T10:51:55.256Z,21.07
2019-05-20T10:54:28.108Z,21.24
2019-05-20T10:57:00.368Z,21.42
2019-05-20T10:59:32.067Z,21.56
2019-05-20T11:02:04.243Z,21.76
2019-05-20T11:04:36.142Z,21.96
2019-05-20T11:07:07.840Z,22.07
2019-05-20T11:09:39.559Z,22.19
2019-05-20T11:12:11.349Z,22.36
2019-05-20T11:14:43.194Z,22.37
2019-05-20T11:17:15.253Z,22.40
2019-05-20T11:19:47.406Z,22.25
2019-05-20T11:22:18.959Z,22.17
2019-05-20T11:24:51.063Z,22.19
2019-05-20T11:27:22.700Z,22.31
2019-05-20T11:29:54.748Z,22.45
2019-05-20T11:32:26.833Z,22.42
2019-05-20T11:34:58.474Z,22.44
2019-05-20T11:37:29.957Z,22.59
2019-05-20T11:40:02.128Z,22.60
2019-05-20T11:42:34.081Z,22.65
2019-05-20T11:45:09.375Z,22.75
2019-05-20T11:47:41.785Z,22.89
2019-05-20T11:50:15.879Z,23.02
2019-05-20T11:52:48.016Z,23.00
2019-05-20T11:55:19.825Z,23.07
2019-05-20T11:57:52.502Z,23.04
2019-05-20T12:00:24.525Z,23.25
2019-05-20T12:05:28.980Z,23.84
2019-05-20T12:08:01.498Z,24.12
2019-05-20T12:10:33.918Z,24.35
2019-05-20T12:13:05.533Z,24.17
2019-05-20T12:15:37.549Z,23.98
2019-05-20T12:18:09.058Z,23.84
2019-05-20T12:20:41.006Z,23.51
2019-05-20T12:23:13.255Z,23.33
2019-05-20T12:25:45.683Z,23.28
2019-05-20T12:28:17.571Z,23.27
2019-05-20T12:30:50.087Z,23.48
2019-05-20T12:33:22.383Z,23.66
2019-05-20T12:35:54.198Z,23.71
2019-05-20T12:38:25.457Z,23.65
2019-05-20T12:40:57.377Z,23.54
2019-05-20T12:43:29.010Z,23.68
2019-05-20T12:46:00.442Z,23.72
2019-05-20T12:48:32.208Z,23.79
2019-05-20T12:51:04.314Z,23.82
2019-05-20T12:53:36.028Z,23.81
2019-05-20T12:56:08.186Z,23.88
2019-05-20T12:58:40.142Z,23.96
2019-05-20T13:01:12.265Z,24.00
2019-05-20T13:03:44.230Z,24.12
2019-05-20T13:06:15.861Z,24.23
2019-05-20T13:08:47.221Z,24.35
2019-05-20T13:11:19.182Z,24.52
2019-05-20T13:13:52.136Z,24.61
2019-05-20T13:16:24.707Z,24.56
2019-05-20T13:18:56.947Z,24.38
2019-05-20T13:21:28.518Z,24.33
2019-05-20T13:24:00.970Z,24.22
2019-05-20T13:26:33.190Z,24.11
2019-05-20T13:29:05.173Z,23.97
2019-05-20T13:31:37.549Z,24.24
2019-05-20T13:34:11.110Z,24.43
2019-05-20T13:36:43.062Z,24.34
2019-05-20T13:39:14.564Z,24.22
2019-05-20T13:41:46.067Z,24.17
2019-05-20T13:44:17.462Z,23.95
2019-05-20T13:46:50.263Z,23.77
2019-05-20T13:49:22.687Z,23.65
2019-05-20T13:51:55.136Z,23.49
2019-05-20T13:54:26.568Z,23.41
2019-05-20T13:56:58.652Z,23.30
2019-05-20T13:59:30.729Z,23.23
2019-05-20T14:02:02.769Z,23.09
2019-05-20T14:04:34.744Z,23.08
2019-05-20T14:07:06.147Z,23.05
2019-05-20T14:09:37.639Z,23.24
2019-05-20T14:12:10.171Z,23.44
2019-05-20T14:14:41.425Z,23.64
2019-05-20T14:17:13.977Z,23.81
2019-05-20T14:19:45.818Z,23.89
2019-05-20T14:22:18.179Z,23.79
2019-05-20T14:24:50.701Z,23.74
2019-05-20T14:27:22.419Z,23.61
2019-05-20T14:29:58.757Z,23.63
2019-05-20T14:32:31.330Z,23.66
2019-05-20T14:35:02.761Z,23.62
2019-05-20T14:37:35.636Z,23.50
2019-05-20T14:40:08.673Z,23.45
2019-05-20T14:42:41.059Z,23.42
2019-05-20T14:45:13.796Z,23.39
2019-05-20T14:47:46.885Z,23.37
2019-05-20T14:50:19.120Z,23.27
2019-05-20T14:52:51.757Z,23.29
2019-05-20T14:55:24.168Z,23.39
2019-05-20T14:57:56.314Z,23.36
2019-05-20T15:00:28.850Z,23.30
2019-05-20T15:03:01.744Z,23.18
2019-05-20T15:05:33.658Z,23.25
2019-05-20T15:08:05.798Z,23.40
2019-05-20T15:10:37.045Z,23.52
2019-05-20T15:13:08.554Z,23.54
2019-05-20T15:15:41.537Z,23.65
2019-05-20T15:18:13.422Z,23.67
2019-05-20T15:20:44.966Z,23.55
2019-05-20T15:23:19.611Z,23.29
2019-05-20T15:25:51.228Z,23.34
2019-05-20T15:28:23.019Z,23.38
2019-05-20T15:31:25.854Z,23.49
2019-05-20T15:34:10.230Z,23.59
2019-05-20T15:36:50.661Z,23.73
2019-05-20T15:39:23.240Z,23.67
2019-05-20T15:41:55.721Z,23.62
2019-05-20T15:44:36.920Z,23.51
2019-05-20T15:47:22.213Z,23.47
2019-05-20T15:49:54.611Z,23.19
2019-05-20T15:52:26.454Z,22.99
2019-05-20T15:54:58.365Z,22.94
2019-05-20T15:57:29.754Z,23.11
2019-05-20T16:00:01.339Z,23.27
2019-05-20T16:02:50.698Z,23.23
2019-05-20T16:06:22.891Z,23.29
2019-05-20T16:09:36.299Z,23.34
2019-05-20T16:12:34.623Z,23.31
2019-05-20T16:15:36.958Z,23.36
2019-05-20T16:18:23.102Z,23.28
2019-05-20T16:20:55.538Z,23.32
2019-05-20T16:23:28.394Z,23.34
2019-05-20T16:25:59.956Z,23.25
2019-05-20T16:28:31.303Z,23.17
2019-05-20T16:31:03.372Z,23.14
2019-05-20T16:33:34.852Z,22.98
2019-05-20T16:36:07.100Z,22.97
2019-05-20T16:38:40.130Z,23.02
2019-05-20T16:41:11.638Z,23.00
2019-05-20T16:43:43.169Z,22.98
2019-05-20T16:46:15.279Z,22.87
2019-05-20T16:48:47.138Z,22.71
2019-05-20T16:51:22.067Z,22.74
2019-05-20T16:53:53.380Z,22.75
2019-05-20T16:56:24.862Z,22.75
2019-05-20T16:58:55.969Z,22.62
2019-05-20T17:01:28.527Z,22.55
2019-05-20T17:03:59.458Z,22.46
2019-05-20T17:06:31.605Z,22.40
2019-05-20T17:09:04.015Z,22.34
2019-05-20T17:11:35.736Z,22.29
2019-05-20T17:14:10.734Z,22.17
2019-05-20T17:16:41.651Z,22.03
2019-05-20T17:19:13.213Z,22.03
2019-05-20T17:21:45.062Z,21.87
2019-05-20T17:24:17.839Z,21.69
2019-05-20T17:26:49.524Z,21.62
2019-05-20T17:29:21.930Z,21.58
2019-05-20T17:31:53.622Z,21.57
2019-05-20T17:34:25.069Z,21.54
2019-05-20T17:36:56.824Z,21.43
2019-05-20T17:39:28.651Z,21.41
2019-05-20T17:42:00.765Z,21.38
2019-05-20T17:44:33.049Z,21.35
2019-05-20T17:47:04.621Z,21.29
2019-05-20T17:49:36.346Z,21.19
2019-05-20T17:52:07.545Z,21.11
2019-05-20T17:54:38.758Z,21.06
2019-05-20T17:57:10.789Z,20.99
2019-05-20T17:59:42.130Z,20.90
2019-05-20T18:02:13.908Z,20.78
2019-05-20T18:04:45.708Z,20.75
2019-05-20T18:07:17.887Z,20.72
2019-05-20T18:09:51.606Z,20.63
2019-05-20T18:12:23.216Z,20.64
2019-05-20T18:14:57.250Z,20.58
2019-05-20T18:17:28.712Z,20.60
2019-05-20T18:20:00.203Z,20.63
2019-05-20T18:22:31.606Z,20.64
2019-05-20T18:25:02.904Z,20.54
2019-05-20T18:27:34.624Z,20.47
2019-05-20T18:30:06.085Z,20.40
2019-05-20T18:32:38.877Z,20.28
2019-05-20T18:35:11.183Z,20.17
2019-05-20T18:37:43.838Z,20.09
2019-05-20T18:40:16.914Z,19.98
2019-05-20T18:43:03.025Z,19.81
2019-05-20T18:45:52.907Z,19.69
2019-05-20T18:48:25.587Z,19.47
2019-05-20T18:50:58.164Z,19.39
2019-05-20T18:53:31.041Z,19.28
2019-05-20T18:56:02.853Z,19.15
2019-05-20T18:58:36.686Z,19.01
2019-05-20T19:01:08.611Z,19.09
2019-05-20T19:03:40.110Z,19.09
2019-05-20T19:06:12.082Z,18.96
2019-05-20T19:08:44.213Z,18.86
2019-05-20T19:11:16.716Z,18.79
2019-05-20T19:13:48.891Z,18.66
2019-05-20T19:16:20.933Z,18.56
2019-05-20T19:18:52.710Z,18.46
2019-05-20T19:21:25.082Z,18.40
2019-05-20T19:23:56.859Z,18.38
2019-05-20T19:26:28.190Z,18.26
2019-05-20T19:29:00.288Z,18.02
2019-05-20T19:31:32.798Z,17.98
2019-05-20T19:34:05.677Z,17.97
2019-05-20T19:36:37.555Z,17.92
2019-05-20T19:39:10.210Z,17.85
2019-05-20T19:41:43.043Z,17.79
2019-05-20T19:44:14.723Z,17.65
2019-05-20T19:46:46.380Z,17.55
2019-05-20T19:49:18.052Z,17.48
2019-05-20T19:51:49.779Z,17.46
2019-05-20T19:54:21.425Z,17.39
2019-05-20T19:56:52.465Z,17.35
2019-05-20T19:59:24.284Z,17.28
2019-05-20T20:01:56.370Z,17.11
2019-05-20T20:04:27.414Z,17.12
2019-05-20T20:06:59.392Z,17.06
2019-05-20T20:09:32.042Z,16.99
2019-05-20T20:12:03.786Z,16.95
2019-05-20T20:14:35.088Z,16.86
2019-05-20T20:17:09.992Z,16.82
2019-05-20T20:19:44.193Z,16.72
2019-05-20T20:22:20.248Z,16.67
2019-05-20T20:24:53.150Z,16.57
2019-05-20T20:27:24.830Z,16.54
2019-05-20T20:29:57.593Z,16.50
2019-05-20T20:32:37.927Z,16.48
2019-05-20T20:35:02.569Z,16.39
2019-05-20T20:37:34.092Z,16.40
2019-05-20T20:40:06.463Z,16.35
2019-05-20T20:42:38.130Z,16.34
2019-05-20T20:45:09.451Z,16.33
2019-05-20T20:47:42.303Z,16.31
2019-05-20T20:50:15.043Z,16.22
2019-05-20T20:52:47.742Z,16.08
2019-05-20T20:55:20.703Z,16.04
2019-05-20T20:57:51.821Z,16.02
2019-05-20T21:00:23.901Z,15.98
2019-05-20T21:02:55.745Z,15.97
2019-05-20T21:05:27.621Z,16.02
2019-05-20T21:07:58.781Z,15.98
2019-05-20T21:10:30.856Z,15.88
2019-05-20T21:13:03.378Z,15.91
2019-05-20T21:15:35.392Z,15.88
2019-05-20T21:18:07.455Z,15.87
2019-05-20T21:20:39.655Z,15.83
2019-05-20T21:23:20.229Z,15.80
2019-05-20T21:25:53.485Z,15.75
2019-05-20T21:28:25.818Z,15.66
2019-05-20T21:30:56.914Z,15.53
2019-05-20T21:33:29.417Z,15.47
2019-05-20T21:36:01.355Z,15.46
2019-05-20T21:38:32.806Z,15.37
2019-05-20T21:41:04.464Z,15.26
2019-05-20T21:43:37.026Z,15.24
2019-05-20T21:46:07.993Z,15.23
2019-05-20T21:48:39.037Z,15.21
2019-05-20T21:51:11.115Z,15.14
2019-05-20T21:53:51.644Z,15.05
2019-05-20T21:56:25.683Z,15.03
2019-05-20T21:58:57.151Z,14.98
2019-05-20T22:01:30.090Z,14.93
2019-05-20T22:04:02.463Z,14.89
2019-05-20T22:06:34.591Z,14.86
2019-05-20T22:09:07.635Z,14.84
2019-05-20T22:11:39.578Z,14.77
2019-05-20T22:14:11.038Z,14.59
2019-05-20T22:16:43.592Z,14.55
2019-05-20T22:19:14.997Z,14.57
2019-05-20T22:21:49.786Z,14.46
2019-05-20T22:24:21.262Z,14.39
2019-05-20T22:26:54.003Z,14.25
2019-05-20T22:29:26.140Z,14.25
2019-05-20T22:31:58.302Z,14.18
2019-05-20T22:34:29.821Z,14.20
2019-05-20T22:37:02.229Z,14.16
2019-05-20T22:39:34.350Z,14.11
2019-05-20T22:42:06.156Z,14.10
2019-05-20T22:44:37.619Z,14.08
2019-05-20T22:47:08.900Z,14.02
2019-05-20T22:49:40.579Z,13.98
2019-05-20T22:52:12.653Z,13.93
2019-05-20T22:54:44.173Z,13.93
2019-05-20T22:57:15.493Z,13.96
2019-05-20T22:59:46.622Z,13.98
2019-05-20T23:02:18.241Z,14.03
2019-05-20T23:04:49.860Z,14.05
2019-05-20T23:07:21.615Z,14.02
2019-05-20T23:09:53.197Z,13.98
2019-05-20T23:12:24.260Z,13.95
2019-05-20T23:14:56.084Z,13.92
2019-05-20T23:17:27.841Z,13.91
2019-05-20T23:19:58.922Z,13.82
2019-05-20T23:22:30.279Z,13.80
2019-05-20T23:25:02.207Z,13.74
2019-05-20T23:27:33.279Z,13.72
2019-05-20T23:30:07.014Z,13.72
2019-05-20T23:32:38.784Z,13.72
2019-05-20T23:35:10.247Z,13.68
2019-05-20T23:37:42.195Z,13.65
2019-05-20T23:40:16.882Z,13.61
2019-05-20T23:42:49.030Z,13.54
2019-05-20T23:45:20.132Z,13.53
2019-05-20T23:47:51.708Z,13.42
2019-05-20T23:50:22.642Z,13.39
2019-05-20T23:52:54.381Z,13.36
2019-05-20T23:55:25.884Z,13.35
2019-05-20T23:57:57.082Z,13.29
